Time;durP1;ratioP1;P1;durP2;ratioP2;P2;SDS_P1;SDS_P2;PMS_P1;PMS_P2;Temp;Humidity;BMP_temperature;BMP_pressure;BME280_temperature;BME280_humidity;BME280_pressure;Samples;Min_cycle;Max_cycle;Signal;HPM_P1;HPM_P2
2021/12/24 00:00:19;;;;;;;;;;;;;;;10.36;33.76;99085.56;4466414;32;32941;-74
2021/12/24 00:02:47;;;;;;;;;;;;;;;10.02;34.78;99084.84;4467631;32;33323;-73
2021/12/24 00:05:14;;;;;;;;;;;;;;;9.76;35.66;99103.03;4479388;31;34119;-75
2021/12/24 00:07:42;;;;;;;;;;;;;;;9.68;35.68;99084.09;4478662;32;34442;-74
2021/12/24 00:10:10;;;;;;;;;;;;;;;10.06;34.98;99080.09;4462794;32;34112;-74
2021/12/24 00:12:41;;;;;;;;;;;;;;;9.98;34.82;99089.59;4468499;32;32404;-75
2021/12/24 00:18:11;;;;;;;;;;;;;;;10.06;34.70;99088.13;4465046;32;33905;-75
2021/12/24 00:35:15;;;;;;;;;;;;;;;9.71;35.46;99036.59;4470283;32;34494;-78
2021/12/24 00:37:20;;;;;;;;;;;;;;;10.15;35.03;99028.53;4462631;32;33768;-76
2021/12/24 00:39:55;;;;;;;;;;;;;;;10.46;33.90;99024.09;4465467;32;35067;-75
2021/12/24 00:42:23;;;;;;;;;;;;;;;10.41;33.66;99008.44;4465957;31;33984;-75
2021/12/24 00:44:50;;;;;;;;;;;;;;;9.79;35.49;98995.84;4466172;32;32421;-74
2021/12/24 00:47:17;;;;;;;;;;;;;;;10.07;34.89;98999.72;4472087;32;32988;-75
2021/12/24 00:49:45;;;;;;;;;;;;;;;9.60;36.16;98999.22;4465192;32;32807;-78
2021/12/24 00:55:03;;;;;;;;;;;;;;;9.94;35.08;98967.84;4479918;32;34159;-78
2021/12/24 00:57:36;;;;;;;;;;;;;;;10.00;34.76;98971.81;4479903;32;34955;-76
2021/12/24 01:00:10;;;;;;;;;;;;;;;9.10;36.82;98948.97;4472057;32;35135;-77
2021/12/24 01:02:37;;;;;;;;;;;;;;;9.10;36.82;98932.97;4466051;32;34247;-76
2021/12/24 01:05:06;;;;;;;;;;;;;;;9.19;36.79;98958.06;4465480;32;33349;-73
2021/12/24 01:07:33;;;;;;;;;;;;;;;9.40;36.33;98933.22;4467038;32;35153;-73
2021/12/24 01:10:00;;;;;;;;;;;;;;;9.13;37.19;98912.34;4466441;32;34303;-76
2021/12/24 01:12:28;;;;;;;;;;;;;;;7.70;39.51;98897.78;4472448;32;33830;-72
2021/12/24 01:14:55;;;;;;;;;;;;;;;6.43;42.72;98924.91;4481574;31;32075;-72
2021/12/24 01:20:26;;;;;;;;;;;;;;;6.51;42.82;98909.25;4464711;31;35219;-74
2021/12/24 01:25:46;;;;;;;;;;;;;;;7.73;40.34;98887.84;4466586;32;33453;-73
2021/12/24 01:44:47;;;;;;;;;;;;;;;8.90;38.03;98896.37;4469666;32;34469;-74
2021/12/24 01:47:15;;;;;;;;;;;;;;;8.86;38.20;98897.59;4479781;31;33701;-74
2021/12/24 01:49:43;;;;;;;;;;;;;;;8.74;38.57;98903.94;4480501;32;34007;-73
2021/12/24 01:52:10;;;;;;;;;;;;;;;9.17;38.02;98887.06;4469940;31;34428;-74
2021/12/24 01:54:39;;;;;;;;;;;;;;;8.46;39.22;98886.59;4472595;32;35090;-74
2021/12/24 01:57:06;;;;;;;;;;;;;;;9.53;36.88;98873.34;4475718;32;32153;-72
2021/12/24 01:59:33;;;;;;;;;;;;;;;8.71;38.33;98870.34;4475769;31;33948;-73
2021/12/24 02:02:01;;;;;;;;;;;;;;;8.90;38.26;98879.53;4464435;32;33683;-74
2021/12/24 02:04:28;;;;;;;;;;;;;;;8.66;38.68;98867.19;4465502;32;34122;-73
2021/12/24 02:06:56;;;;;;;;;;;;;;;9.75;36.39;98860.81;4472752;32;32706;-73
2021/12/24 02:09:23;;;;;;;;;;;;;;;8.96;38.17;98861.19;4473679;31;34020;-72
2021/12/24 02:11:51;;;;;;;;;;;;;;;9.40;37.33;98861.97;4476736;32;34162;-73
2021/12/24 02:14:21;;;;;;;;;;;;;;;9.83;36.34;98847.66;4469225;32;34703;-72
2021/12/24 02:17:30;;;;;;;;;;;;;;;9.23;37.63;98857.19;4467645;32;34271;-73
2021/12/24 02:30:53;;;;;;;;;;;;;;;9.46;37.48;98824.06;4474067;32;35098;-72
2021/12/24 02:33:21;;;;;;;;;;;;;;;9.70;37.06;98825.63;4469093;32;35355;-73
2021/12/24 02:35:49;;;;;;;;;;;;;;;9.43;37.78;98832.31;4467857;32;34586;-76
2021/12/24 02:38:17;;;;;;;;;;;;;;;9.84;36.76;98801.22;4477010;32;31464;-74
2021/12/24 02:40:45;;;;;;;;;;;;;;;9.95;36.36;98781.56;4477088;32;32934;-73
2021/12/24 02:43:16;;;;;;;;;;;;;;;9.57;37.39;98781.25;4475799;32;34155;-74
2021/12/24 02:45:45;;;;;;;;;;;;;;;9.38;37.38;98772.28;4473886;32;34119;-73
2021/12/24 02:56:27;;;;;;;;;;;;;;;9.37;37.49;98739.38;4474984;32;35151;-73
2021/12/24 02:58:55;;;;;;;;;;;;;;;9.62;36.93;98740.78;4475634;31;33289;-73
2021/12/24 03:01:24;;;;;;;;;;;;;;;9.71;36.64;98744.47;4472194;32;33944;-71
2021/12/24 03:03:52;;;;;;;;;;;;;;;9.62;36.83;98756.81;4465448;32;33988;-72
2021/12/24 03:06:21;;;;;;;;;;;;;;;9.49;36.82;98757.00;4470748;32;34975;-70
2021/12/24 03:08:48;;;;;;;;;;;;;;;9.80;36.24;98768.56;4476017;31;33189;-71
2021/12/24 03:11:16;;;;;;;;;;;;;;;9.76;36.36;98777.00;4471480;32;35143;-71
2021/12/24 03:13:44;;;;;;;;;;;;;;;10.04;35.83;98791.47;4471938;32;35303;-71
2021/12/24 03:16:11;;;;;;;;;;;;;;;9.65;36.75;98779.75;4465817;32;35147;-73
2021/12/24 03:18:41;;;;;;;;;;;;;;;9.64;36.70;98807.44;4477664;32;33337;-72
2021/12/24 03:21:28;;;;;;;;;;;;;;;9.41;37.40;98793.41;4477561;31;34183;-72
2021/12/24 03:26:36;;;;;;;;;;;;;;;9.01;38.65;98794.91;4471766;31;32937;-71
2021/12/24 03:29:04;;;;;;;;;;;;;;;8.89;39.01;98790.59;4464757;32;33448;-73
2021/12/24 03:31:31;;;;;;;;;;;;;;;9.70;37.92;98780.22;4477844;31;35071;-73
2021/12/24 03:33:59;;;;;;;;;;;;;;;9.86;37.35;98775.22;4467243;32;34438;-76
2021/12/24 03:36:27;;;;;;;;;;;;;;;9.79;37.62;98768.69;4471215;32;34393;-76
2021/12/24 03:38:55;;;;;;;;;;;;;;;9.90;37.62;98771.28;4484124;32;33476;-74
2021/12/24 03:41:23;;;;;;;;;;;;;;;9.91;37.31;98767.63;4474441;31;33634;-74
2021/12/24 03:43:50;;;;;;;;;;;;;;;9.86;37.52;98771.72;4468585;32;34021;-73
2021/12/24 03:46:24;;;;;;;;;;;;;;;9.84;37.72;98762.97;4477024;32;33626;-73
2021/12/24 03:48:59;;;;;;;;;;;;;;;9.85;37.45;98745.94;4467044;32;33350;-74
2021/12/24 03:56:46;;;;;;;;;;;;;;;9.90;37.42;98739.22;4466166;32;33070;-73
2021/12/24 03:59:15;;;;;;;;;;;;;;;10.07;36.94;98736.88;4468173;32;34249;-72
2021/12/24 04:01:44;;;;;;;;;;;;;;;9.78;37.84;98742.97;4474896;32;35318;-72
2021/12/24 04:04:14;;;;;;;;;;;;;;;10.07;37.25;98724.34;4467995;32;32997;-74
2021/12/24 04:06:44;;;;;;;;;;;;;;;10.13;37.07;98715.78;4471662;32;32529;-73
2021/12/24 04:09:12;;;;;;;;;;;;;;;10.16;37.26;98717.34;4468208;32;33045;-72
2021/12/24 04:11:41;;;;;;;;;;;;;;;10.05;37.34;98704.94;4475047;32;34138;-73
2021/12/24 04:14:08;;;;;;;;;;;;;;;10.07;37.24;98710.97;4467883;32;35246;-73
2021/12/24 04:16:37;;;;;;;;;;;;;;;10.10;37.30;98702.69;4469233;32;34504;-73
2021/12/24 04:19:25;;;;;;;;;;;;;;;9.83;37.76;98683.78;4463571;32;31938;-72
2021/12/24 04:24:56;;;;;;;;;;;;;;;9.93;37.65;98671.28;4474863;31;34245;-72
2021/12/24 04:27:25;;;;;;;;;;;;;;;9.95;37.73;98669.28;4468021;32;33428;-73
2021/12/24 04:30:00;;;;;;;;;;;;;;;10.16;36.93;98669.22;4471021;32;34166;-72
2021/12/24 04:32:45;;;;;;;;;;;;;;;9.95;37.19;98666.63;4467050;32;34206;-75
2021/12/24 04:51:52;;;;;;;;;;;;;;;10.04;38.61;98658.63;4476714;31;33550;-79
2021/12/24 05:05:20;;;;;;;;;;;;;;;10.69;36.78;98642.94;4474510;32;35122;-73
2021/12/24 05:10:21;;;;;;;;;;;;;;;10.18;37.83;98654.72;4466553;32;34642;-74
2021/12/24 05:12:49;;;;;;;;;;;;;;;10.12;38.33;98643.75;4469970;31;33794;-73
2021/12/24 05:15:18;;;;;;;;;;;;;;;10.56;37.37;98653.09;4471952;32;34257;-73
2021/12/24 05:18:11;;;;;;;;;;;;;;;10.87;36.52;98648.41;4467128;32;34332;-75
2021/12/24 05:23:28;;;;;;;;;;;;;;;11.07;36.06;98653.72;4466208;32;33262;-74
2021/12/24 05:25:55;;;;;;;;;;;;;;;10.83;36.76;98647.00;4477793;31;33958;-76
2021/12/24 05:28:23;;;;;;;;;;;;;;;10.94;36.04;98641.47;4470006;32;35450;-77
2021/12/24 05:30:50;;;;;;;;;;;;;;;10.68;36.81;98640.41;4473808;31;35212;-75
2021/12/24 05:33:18;;;;;;;;;;;;;;;10.64;36.61;98645.19;4470916;32;32893;-75
2021/12/24 05:35:45;;;;;;;;;;;;;;;10.84;36.51;98650.53;4467828;32;34117;-75
2021/12/24 05:38:13;;;;;;;;;;;;;;;10.02;38.11;98644.56;4463418;32;34306;-76
2021/12/24 05:40:41;;;;;;;;;;;;;;;10.58;37.05;98640.41;4466549;32;34204;-75
2021/12/24 05:43:08;;;;;;;;;;;;;;;10.47;37.26;98630.72;4473791;32;33925;-73
2021/12/24 05:45:36;;;;;;;;;;;;;;;10.66;37.12;98659.28;4469953;32;34595;-72
2021/12/24 05:48:06;;;;;;;;;;;;;;;10.99;36.19;98661.66;4472514;32;34080;-77
2021/12/24 05:50:33;;;;;;;;;;;;;;;10.01;38.19;98658.91;4472222;32;33851;-75
2021/12/24 05:53:16;;;;;;;;;;;;;;;10.85;36.53;98663.78;4464576;32;34129;-75
2021/12/24 05:55:48;;;;;;;;;;;;;;;10.41;37.65;98668.72;4471412;32;34444;-77
2021/12/24 05:58:16;;;;;;;;;;;;;;;10.94;36.30;98662.91;4471812;32;34864;-74
2021/12/24 06:00:44;;;;;;;;;;;;;;;11.16;36.05;98676.97;4474119;32;34529;-73
2021/12/24 06:03:12;;;;;;;;;;;;;;;10.91;36.68;98683.75;4474600;31;33446;-77
2021/12/24 06:05:40;;;;;;;;;;;;;;;11.36;35.64;98693.81;4469914;32;33249;-74
2021/12/24 06:08:08;;;;;;;;;;;;;;;11.34;35.78;98677.91;4471641;32;33125;-74
2021/12/24 06:10:35;;;;;;;;;;;;;;;11.45;35.58;98670.69;4474361;32;33955;-74
2021/12/24 06:13:03;;;;;;;;;;;;;;;11.31;35.72;98678.19;4475198;31;30817;-74
2021/12/24 06:15:40;;;;;;;;;;;;;;;11.29;36.04;98663.25;4470094;32;34695;-74
2021/12/24 06:18:21;;;;;;;;;;;;;;;11.17;36.31;98650.06;4467173;32;35964;-76
2021/12/24 06:20:48;;;;;;;;;;;;;;;10.77;36.71;98650.25;4478053;32;34186;-74
2021/12/24 06:23:18;;;;;;;;;;;;;;;10.85;36.44;98653.06;4466892;32;33294;-76
2021/12/24 06:25:46;;;;;;;;;;;;;;;11.05;36.29;98648.53;4474964;32;33600;-77
2021/12/24 06:28:14;;;;;;;;;;;;;;;11.37;35.53;98647.31;4475182;32;34199;-73
2021/12/24 06:30:42;;;;;;;;;;;;;;;11.33;35.80;98641.41;4468984;32;33508;-73
2021/12/24 06:33:09;;;;;;;;;;;;;;;11.46;35.52;98638.41;4475076;32;33317;-74
2021/12/24 06:35:37;;;;;;;;;;;;;;;11.35;35.35;98633.22;4471540;31;34672;-72
2021/12/24 06:38:04;;;;;;;;;;;;;;;11.73;34.60;98631.34;4466268;32;34177;-75
2021/12/24 06:40:32;;;;;;;;;;;;;;;11.56;35.47;98625.78;4470276;32;34158;-73
2021/12/24 06:42:59;;;;;;;;;;;;;;;11.61;34.94;98631.53;4466210;32;33736;-72
2021/12/24 06:45:27;;;;;;;;;;;;;;;10.84;36.48;98632.62;4476365;31;33738;-76
2021/12/24 06:47:55;;;;;;;;;;;;;;;11.63;35.59;98637.59;4474214;32;34483;-73
2021/12/24 06:50:24;;;;;;;;;;;;;;;11.64;35.93;98630.41;4467894;31;33776;-74
2021/12/24 06:52:52;;;;;;;;;;;;;;;11.52;35.90;98624.38;4467842;32;33646;-71
2021/12/24 06:55:22;;;;;;;;;;;;;;;11.55;35.98;98624.09;4465953;32;32668;-71
2021/12/24 06:57:55;;;;;;;;;;;;;;;11.71;35.37;98630.66;4471661;32;35466;-72
2021/12/24 07:00:23;;;;;;;;;;;;;;;11.84;35.17;98623.09;4468171;32;33998;-72
2021/12/24 07:02:51;;;;;;;;;;;;;;;11.88;35.23;98633.41;4467578;32;34315;-72
2021/12/24 07:05:19;;;;;;;;;;;;;;;11.88;35.09;98633.41;4468564;32;34198;-73
2021/12/24 07:07:47;;;;;;;;;;;;;;;11.73;35.45;98626.84;4465869;32;35293;-73
2021/12/24 07:10:14;;;;;;;;;;;;;;;11.72;35.88;98641.25;4467370;32;34385;-73
2021/12/24 07:12:41;;;;;;;;;;;;;;;12.18;34.89;98641.28;4474655;31;33836;-74
2021/12/24 07:15:09;;;;;;;;;;;;;;;11.90;35.28;98625.22;4470583;32;35231;-74
2021/12/24 07:17:36;;;;;;;;;;;;;;;11.95;35.36;98651.59;4472051;32;33116;-75
2021/12/24 07:20:04;;;;;;;;;;;;;;;11.60;36.29;98623.66;4469221;32;34281;-75
2021/12/24 07:22:32;;;;;;;;;;;;;;;11.99;35.38;98626.16;4465582;32;34255;-73
2021/12/24 07:24:59;;;;;;;;;;;;;;;11.83;35.64;98632.13;4474650;32;33269;-73
2021/12/24 07:27:26;;;;;;;;;;;;;;;11.19;37.65;98637.34;4471518;32;34342;-72
2021/12/24 07:29:54;;;;;;;;;;;;;;;11.41;37.11;98633.47;4468781;32;34139;-72
2021/12/24 07:32:22;;;;;;;;;;;;;;;11.28;37.71;98638.31;4471101;32;33268;-72
2021/12/24 07:34:50;;;;;;;;;;;;;;;11.23;38.15;98651.28;4466689;32;32618;-72
2021/12/24 07:37:17;;;;;;;;;;;;;;;11.62;37.24;98652.00;4467429;32;34267;-72
2021/12/24 07:39:44;;;;;;;;;;;;;;;11.87;36.65;98657.69;4466277;32;34441;-71
2021/12/24 07:42:12;;;;;;;;;;;;;;;12.31;35.60;98663.22;4466929;32;32270;-72
2021/12/24 07:44:41;;;;;;;;;;;;;;;11.39;37.88;98670.25;4470983;32;33976;-72
2021/12/24 07:47:16;;;;;;;;;;;;;;;12.46;35.58;98660.84;4469184;32;34302;-72
2021/12/24 07:49:44;;;;;;;;;;;;;;;12.71;34.95;98640.41;4474805;32;35229;-69
2021/12/24 07:52:13;;;;;;;;;;;;;;;12.19;35.67;98630.38;4465863;32;33192;-67
2021/12/24 07:54:48;;;;;;;;;;;;;;;12.59;35.24;98621.03;4466670;32;34260;-71
2021/12/24 07:57:36;;;;;;;;;;;;;;;12.89;34.40;98616.25;4469218;32;35382;-76
2021/12/24 08:00:05;;;;;;;;;;;;;;;12.95;34.36;98602.19;4472281;32;34151;-72
2021/12/24 08:02:41;;;;;;;;;;;;;;;12.62;34.92;98609.16;4469487;32;33519;-70
2021/12/24 08:05:09;;;;;;;;;;;;;;;12.81;34.82;98614.34;4467013;32;34245;-70
2021/12/24 08:07:37;;;;;;;;;;;;;;;12.94;34.43;98611.25;4474812;31;34339;-69
2021/12/24 08:10:04;;;;;;;;;;;;;;;12.98;34.40;98623.34;4478973;32;34298;-71
2021/12/24 08:12:31;;;;;;;;;;;;;;;12.89;34.58;98603.66;4475833;31;34286;-75
2021/12/24 08:14:59;;;;;;;;;;;;;;;12.83;34.74;98594.38;4473481;32;33632;-73
2021/12/24 08:17:26;;;;;;;;;;;;;;;13.13;34.06;98600.28;4469939;32;33429;-71
2021/12/24 08:19:53;;;;;;;;;;;;;;;13.23;33.83;98605.56;4466907;32;33588;-72
2021/12/24 08:22:21;;;;;;;;;;;;;;;12.78;34.68;98596.69;4464952;32;33460;-72
2021/12/24 08:24:48;;;;;;;;;;;;;;;13.14;33.97;98603.81;4468745;32;35638;-72
2021/12/24 08:27:16;;;;;;;;;;;;;;;12.34;35.87;98598.50;4472207;32;35174;-72
2021/12/24 08:29:43;;;;;;;;;;;;;;;12.67;35.61;98588.88;4473219;32;34346;-73
2021/12/24 08:32:11;;;;;;;;;;;;;;;12.93;34.92;98569.25;4474228;32;35207;-73
2021/12/24 08:34:39;;;;;;;;;;;;;;;12.90;35.39;98591.06;4474627;31;34413;-72
2021/12/24 08:37:06;;;;;;;;;;;;;;;11.01;39.04;98598.06;4471899;32;35361;-72
2021/12/24 08:39:33;;;;;;;;;;;;;;;12.04;37.38;98587.16;4475233;31;34781;-73
2021/12/24 08:42:01;;;;;;;;;;;;;;;12.32;37.02;98587.06;4472596;32;33326;-74
2021/12/24 08:44:30;;;;;;;;;;;;;;;12.42;36.38;98579.78;4463827;32;34684;-73
2021/12/24 08:47:01;;;;;;;;;;;;;;;12.46;36.72;98567.75;4473302;32;34100;-73
2021/12/24 08:49:29;;;;;;;;;;;;;;;12.73;36.55;98582.87;4468991;31;32729;-73
2021/12/24 08:51:57;;;;;;;;;;;;;;;11.75;38.71;98575.75;4476675;32;32206;-73
2021/12/24 08:54:24;;;;;;;;;;;;;;;12.74;36.88;98586.41;4469910;32;34264;-73
2021/12/24 08:56:52;;;;;;;;;;;;;;;12.56;37.10;98581.94;4472133;31;35356;-73
2021/12/24 08:59:20;;;;;;;;;;;;;;;12.86;36.56;98579.78;4467624;32;33981;-73
2021/12/24 09:01:47;;;;;;;;;;;;;;;12.77;36.86;98570.81;4466947;31;32524;-74
2021/12/24 09:04:15;;;;;;;;;;;;;;;12.52;38.14;98577.88;4474898;32;34228;-72
2021/12/24 09:06:43;;;;;;;;;;;;;;;12.90;36.93;98573.09;4468535;32;34546;-73
2021/12/24 09:09:10;;;;;;;;;;;;;;;12.88;36.80;98564.38;4472538;32;35321;-73
2021/12/24 09:11:39;;;;;;;;;;;;;;;13.00;36.86;98565.81;4473713;31;33142;-73
2021/12/24 09:14:06;;;;;;;;;;;;;;;13.45;36.19;98577.28;4467835;32;34108;-73
2021/12/24 09:16:34;;;;;;;;;;;;;;;13.28;36.42;98579.06;4473611;31;34171;-73
2021/12/24 09:19:07;;;;;;;;;;;;;;;13.58;35.96;98577.69;4470813;32;34662;-73
2021/12/24 09:21:35;;;;;;;;;;;;;;;13.77;35.87;98578.41;4465826;32;34296;-73
2021/12/24 09:24:06;;;;;;;;;;;;;;;12.88;38.05;98576.97;4465127;32;34785;-72
2021/12/24 09:26:33;;;;;;;;;;;;;;;13.56;36.77;98577.00;4468659;32;33103;-72
2021/12/24 09:29:01;;;;;;;;;;;;;;;13.85;36.16;98562.31;4472052;32;33710;-72
2021/12/24 09:31:28;;;;;;;;;;;;;;;13.94;36.16;98559.47;4439781;32;838906;-73
2021/12/24 09:33:56;;;;;;;;;;;;;;;13.84;36.40;98549.88;4470185;32;34953;-74
2021/12/24 09:36:26;;;;;;;;;;;;;;;12.82;38.38;98544.34;4473019;32;34447;-72
2021/12/24 09:38:54;;;;;;;;;;;;;;;13.84;36.68;98536.44;4471334;31;32914;-71
2021/12/24 09:41:22;;;;;;;;;;;;;;;13.84;36.91;98544.50;4470846;32;32484;-72
2021/12/24 09:43:50;;;;;;;;;;;;;;;13.37;37.64;98540.47;4468181;31;34348;-74
2021/12/24 09:46:17;;;;;;;;;;;;;;;12.95;38.80;98529.66;4473631;32;35592;-72
2021/12/24 09:48:45;;;;;;;;;;;;;;;12.87;38.28;98519.69;4467412;32;34256;-74
2021/12/24 09:51:12;;;;;;;;;;;;;;;11.98;41.09;98520.72;4470168;32;33001;-73
2021/12/24 09:53:40;;;;;;;;;;;;;;;11.38;42.24;98515.03;4467522;32;34221;-73
2021/12/24 09:56:07;;;;;;;;;;;;;;;12.30;40.75;98517.50;4472659;31;33690;-73
2021/12/24 09:58:34;;;;;;;;;;;;;;;12.75;40.19;98519.16;4468312;32;33978;-72
2021/12/24 10:01:02;;;;;;;;;;;;;;;13.32;38.88;98501.66;4467646;31;33445;-73
2021/12/24 10:03:31;;;;;;;;;;;;;;;13.14;38.53;98490.97;4469555;32;35338;-73
2021/12/24 10:06:00;;;;;;;;;;;;;;;13.43;38.48;98499.53;4464858;32;34490;-73
2021/12/24 10:08:27;;;;;;;;;;;;;;;13.93;37.61;98506.69;4468982;32;35133;-76
2021/12/24 10:11:05;;;;;;;;;;;;;;;13.21;39.33;98484.78;4468230;32;33783;-75
2021/12/24 10:13:46;;;;;;;;;;;;;;;14.14;37.33;98483.84;4470492;32;34198;-77
2021/12/24 10:16:18;;;;;;;;;;;;;;;14.36;36.76;98480.47;4466086;31;35331;-73
2021/12/24 10:18:49;;;;;;;;;;;;;;;13.99;37.44;98473.72;4471420;32;33098;-76
2021/12/24 10:21:22;;;;;;;;;;;;;;;14.21;37.25;98474.91;4474176;32;34395;-73
2021/12/24 10:23:51;;;;;;;;;;;;;;;14.64;36.59;98470.19;4472944;32;35177;-73
2021/12/24 10:26:22;;;;;;;;;;;;;;;14.43;37.21;98477.94;4467753;32;34291;-73
2021/12/24 10:28:53;;;;;;;;;;;;;;;13.84;38.52;98470.03;4469183;31;33298;-74
2021/12/24 10:31:22;;;;;;;;;;;;;;;14.02;37.99;98477.94;4468834;32;34327;-74
2021/12/24 10:34:08;;;;;;;;;;;;;;;14.60;36.71;98470.69;4473941;32;34651;-75
2021/12/24 10:36:52;;;;;;;;;;;;;;;14.76;36.58;98464.44;4472774;32;35356;-77
2021/12/24 10:39:21;;;;;;;;;;;;;;;14.24;38.03;98459.44;4470262;31;34094;-77
2021/12/24 10:41:49;;;;;;;;;;;;;;;14.52;37.83;98459.97;4471239;32;32558;-73
2021/12/24 10:44:17;;;;;;;;;;;;;;;13.88;39.15;98459.78;4473930;32;34201;-73
2021/12/24 10:46:56;;;;;;;;;;;;;;;14.48;37.65;98462.13;4473634;32;34512;-73
2021/12/24 10:55:03;;;;;;;;;;;;;;;15.03;36.95;98447.84;4465524;32;34239;-74
2021/12/24 10:57:32;;;;;;;;;;;;;;;15.13;36.97;98448.47;4470924;32;34571;-73
2021/12/24 11:00:02;;;;;;;;;;;;;;;14.69;37.93;98448.13;4467424;32;34142;-74
2021/12/24 11:02:30;;;;;;;;;;;;;;;15.18;37.28;98447.94;4467133;32;32194;-73
2021/12/24 11:04:58;;;;;;;;;;;;;;;14.03;38.63;98443.78;4463858;32;32781;-73
2021/12/24 11:07:40;;;;;;;;;;;;;;;14.78;37.17;98443.56;4466102;32;33345;-74
2021/12/24 11:10:16;;;;;;;;;;;;;;;14.60;37.67;98447.28;4476470;32;32830;-77
2021/12/24 11:12:48;;;;;;;;;;;;;;;14.96;37.05;98446.00;4470748;32;34037;-76
2021/12/24 11:15:21;;;;;;;;;;;;;;;14.68;37.35;98449.97;4468673;32;35121;-74
2021/12/24 11:17:50;;;;;;;;;;;;;;;14.76;37.41;98448.28;4472536;32;34205;-74
2021/12/24 11:20:17;;;;;;;;;;;;;;;14.26;38.02;98441.28;4472688;32;34254;-73
2021/12/24 11:22:54;;;;;;;;;;;;;;;14.09;38.79;98444.00;4472427;32;34093;-73
2021/12/24 11:25:22;;;;;;;;;;;;;;;13.79;39.57;98448.16;4470405;32;32443;-73
2021/12/24 11:27:50;;;;;;;;;;;;;;;13.62;39.60;98439.25;4476100;32;35396;-74
2021/12/24 11:30:18;;;;;;;;;;;;;;;13.08;41.34;98451.34;4467288;32;32989;-74
2021/12/24 11:32:45;;;;;;;;;;;;;;;13.37;40.76;98456.34;4472040;32;32668;-75
2021/12/24 11:35:13;;;;;;;;;;;;;;;13.30;40.83;98448.09;4469239;32;33090;-73
2021/12/24 11:37:42;;;;;;;;;;;;;;;13.51;40.53;98447.63;4474538;32;34074;-74
2021/12/24 11:40:10;;;;;;;;;;;;;;;13.72;40.40;98437.25;4458575;32;33017;-75
2021/12/24 11:42:39;;;;;;;;;;;;;;;13.68;40.09;98430.53;4465744;32;32705;-76
2021/12/24 11:45:07;;;;;;;;;;;;;;;13.28;41.59;98428.59;4466695;32;34305;-76
2021/12/24 11:47:35;;;;;;;;;;;;;;;13.99;40.28;98424.47;4473873;32;35318;-74
2021/12/24 11:50:02;;;;;;;;;;;;;;;13.88;40.97;98432.88;4472050;32;35864;-79
2021/12/24 11:52:29;;;;;;;;;;;;;;;14.20;39.94;98426.66;4477402;32;32101;-74
2021/12/24 11:54:57;;;;;;;;;;;;;;;14.43;39.58;98426.78;4473125;32;35030;-74
2021/12/24 11:57:25;;;;;;;;;;;;;;;14.75;38.81;98436.66;4446181;32;35277;-76
2021/12/24 11:59:52;;;;;;;;;;;;;;;14.86;38.48;98416.59;4472351;32;32994;-76
2021/12/24 12:02:40;;;;;;;;;;;;;;;14.74;38.42;98415.31;4475037;32;33361;-78
2021/12/24 12:05:14;;;;;;;;;;;;;;;14.83;38.59;98414.22;4471570;32;34175;-78
2021/12/24 12:07:43;;;;;;;;;;;;;;;14.54;39.88;98407.63;4470733;32;35403;-79
2021/12/24 12:10:12;;;;;;;;;;;;;;;14.96;38.97;98421.75;4466780;32;32820;-79
2021/12/24 12:12:40;;;;;;;;;;;;;;;15.15;39.19;98424.03;4460800;32;33129;-80
2021/12/24 12:15:27;;;;;;;;;;;;;;;15.30;38.81;98419.56;4466976;32;34287;-80
2021/12/24 12:17:58;;;;;;;;;;;;;;;15.25;38.96;98419.28;4473056;32;34229;-79
2021/12/24 12:20:44;;;;;;;;;;;;;;;15.23;39.33;98426.69;4475777;32;34231;-79
2021/12/24 12:23:31;;;;;;;;;;;;;;;15.45;39.52;98416.13;4473525;32;33279;-74
2021/12/24 12:25:58;;;;;;;;;;;;;;;15.86;37.65;98419.44;4471894;32;35061;-75
2021/12/24 12:28:26;;;;;;;;;;;;;;;15.87;37.76;98415.69;4472386;32;37392;-71
2021/12/24 12:30:55;;;;;;;;;;;;;;;15.88;37.68;98425.47;4471189;32;35121;-72
2021/12/24 12:33:32;;;;;;;;;;;;;;;15.93;37.59;98419.53;4473255;32;33326;-75
2021/12/24 12:36:02;;;;;;;;;;;;;;;16.25;37.22;98418.41;4475552;32;34129;-76
2021/12/24 12:38:31;;;;;;;;;;;;;;;16.16;37.67;98414.94;4462925;32;33844;-76
2021/12/24 12:41:17;;;;;;;;;;;;;;;16.04;38.50;98419.94;4471756;32;34492;-76
2021/12/24 12:43:46;;;;;;;;;;;;;;;16.29;38.56;98431.34;4472323;32;32604;-78
2021/12/24 12:46:25;;;;;;;;;;;;;;;16.57;38.14;98421.81;4476712;32;36595;-78
2021/12/24 12:48:53;;;;;;;;;;;;;;;16.58;38.41;98421.63;4468078;32;34148;-76
2021/12/24 12:51:22;;;;;;;;;;;;;;;16.91;37.83;98414.00;4466650;32;34975;-77
2021/12/24 12:53:51;;;;;;;;;;;;;;;16.56;38.86;98420.12;4471853;32;33293;-77
2021/12/24 12:56:21;;;;;;;;;;;;;;;16.94;38.59;98423.59;4470008;32;35654;-77
2021/12/24 12:59:10;;;;;;;;;;;;;;;16.86;39.06;98421.00;4470503;32;34145;-76
2021/12/24 13:01:49;;;;;;;;;;;;;;;17.10;38.85;98420.69;4464152;32;34168;-77
2021/12/24 13:04:16;;;;;;;;;;;;;;;17.29;39.25;98418.44;4462073;32;32216;-76
2021/12/24 13:06:45;;;;;;;;;;;;;;;17.27;38.91;98409.66;4465444;32;34651;-81
2021/12/24 13:09:14;;;;;;;;;;;;;;;17.18;39.01;98417.06;4464876;31;34357;-77
2021/12/24 13:11:46;;;;;;;;;;;;;;;17.33;39.12;98412.44;4465305;32;34859;-78
2021/12/24 13:14:17;;;;;;;;;;;;;;;17.03;40.23;98417.06;4465683;32;33460;-78
2021/12/24 13:16:52;;;;;;;;;;;;;;;17.37;39.08;98421.03;4472866;32;34009;-78
2021/12/24 13:19:27;;;;;;;;;;;;;;;17.24;39.03;98419.00;4470197;32;34161;-76
2021/12/24 13:25:02;;;;;;;;;;;;;;;17.00;39.47;98426.38;4469486;31;32357;-76
2021/12/24 13:27:32;;;;;;;;;;;;;;;17.16;39.93;98438.87;4470809;32;32272;-79
2021/12/24 13:30:16;;;;;;;;;;;;;;;17.00;39.31;98439.06;4469303;32;34158;-78
2021/12/24 13:32:45;;;;;;;;;;;;;;;17.26;38.49;98433.16;4467433;32;34729;-80
2021/12/24 13:35:14;;;;;;;;;;;;;;;16.87;39.00;98428.09;4460688;32;32761;-81
2021/12/24 13:37:45;;;;;;;;;;;;;;;16.46;40.01;98442.81;4466671;32;35150;-80
2021/12/24 13:40:23;;;;;;;;;;;;;;;17.01;39.20;98454.25;4459811;32;35182;-83
2021/12/24 13:42:52;;;;;;;;;;;;;;;17.24;38.61;98435.22;4469888;32;34343;-78
2021/12/24 13:45:20;;;;;;;;;;;;;;;17.20;38.47;98450.97;4468495;32;33541;-78
2021/12/24 13:55:36;;;;;;;;;;;;;;;16.86;39.29;98448.88;4462552;32;31903;-77
2021/12/24 13:58:05;;;;;;;;;;;;;;;17.00;39.75;98466.09;4462267;31;35345;-80
2021/12/24 14:00:33;;;;;;;;;;;;;;;16.78;40.06;98465.16;4461078;32;34344;-77
2021/12/24 14:03:02;;;;;;;;;;;;;;;17.23;38.97;98460.56;4468316;31;34327;-75
2021/12/24 14:05:30;;;;;;;;;;;;;;;17.07;39.12;98467.03;4469724;32;33980;-75
2021/12/24 14:08:04;;;;;;;;;;;;;;;17.18;38.66;98474.66;4469942;32;32986;-75
2021/12/24 14:10:32;;;;;;;;;;;;;;;17.02;38.83;98465.94;4471825;32;32291;-75
2021/12/24 14:13:06;;;;;;;;;;;;;;;16.97;39.23;98470.00;4470717;32;32593;-75
2021/12/24 14:15:46;;;;;;;;;;;;;;;17.31;38.27;98465.91;4471555;32;33727;-79
2021/12/24 14:18:30;;;;;;;;;;;;;;;16.90;39.17;98466.38;4469314;32;35118;-78
2021/12/24 14:23:32;;;;;;;;;;;;;;;17.20;38.30;98479.88;4473087;32;38369;-84
2021/12/24 14:26:01;;;;;;;;;;;;;;;17.11;38.28;98468.34;4470413;32;34167;-79
2021/12/24 14:28:28;;;;;;;;;;;;;;;17.14;38.12;98467.09;4470713;31;35041;-83
2021/12/24 14:31:04;;;;;;;;;;;;;;;17.20;37.92;98471.75;4469917;32;35100;-78
2021/12/24 14:33:37;;;;;;;;;;;;;;;17.23;37.81;98469.53;4472332;32;34772;-78
2021/12/24 14:36:08;;;;;;;;;;;;;;;17.20;37.83;98464.50;4468336;32;33817;-78
2021/12/24 14:38:35;;;;;;;;;;;;;;;17.22;38.06;98467.03;4469483;32;34268;-78
2021/12/24 14:41:03;;;;;;;;;;;;;;;17.45;37.44;98466.88;4451737;32;35264;-81
2021/12/24 14:43:34;;;;;;;;;;;;;;;17.36;37.49;98458.03;4468594;32;33407;-78
2021/12/24 14:46:05;;;;;;;;;;;;;;;17.27;37.33;98464.59;4472327;32;33262;-77
2021/12/24 14:48:35;;;;;;;;;;;;;;;17.10;37.59;98465.81;4471894;32;33979;-78
2021/12/24 14:51:05;;;;;;;;;;;;;;;17.03;37.65;98470.28;4466504;31;33965;-77
2021/12/24 14:53:39;;;;;;;;;;;;;;;16.68;38.66;98459.16;4467731;32;33027;-78
2021/12/24 14:56:09;;;;;;;;;;;;;;;16.83;38.17;98460.06;4476216;32;33523;-74
2021/12/24 14:58:41;;;;;;;;;;;;;;;16.80;38.09;98449.62;4468876;32;33393;-75
2021/12/24 15:01:11;;;;;;;;;;;;;;;16.76;38.06;98456.41;4469046;31;34597;-79
2021/12/24 15:03:40;;;;;;;;;;;;;;;16.44;38.54;98453.00;4474529;32;34277;-78
2021/12/24 15:06:16;;;;;;;;;;;;;;;16.28;38.90;98453.97;4468312;31;33362;-78